createdAt,value
2023-01-12T00:00:49.418Z,91.91
2023-01-12T00:01:49.418Z,92.01
2023-01-12T00:02:49.392Z,92.01
2023-01-12T00:03:49.378Z,92.01
2023-01-12T00:04:49.379Z,92.21
2023-01-12T00:05:49.352Z,92.21
2023-01-12T00:06:49.359Z,92.11
2023-01-12T00:07:49.327Z,92.21
2023-01-12T00:08:49.315Z,92.21
2023-01-12T00:09:49.347Z,92.01
2023-01-12T00:10:49.283Z,92.01
2023-01-12T00:11:49.285Z,91.91
2023-01-12T00:12:49.263Z,91.70
2023-01-12T00:13:49.257Z,91.49
2023-01-12T00:14:49.235Z,91.25
2023-01-12T00:15:49.236Z,91.19
2023-01-12T00:16:49.225Z,91.29
2023-01-12T00:17:49.193Z,91.39
2023-01-12T00:18:49.184Z,91.29
2023-01-12T00:19:49.165Z,91.19
2023-01-12T00:20:49.158Z,90.83
2023-01-12T00:21:49.160Z,90.73
2023-01-12T00:22:49.131Z,90.73
2023-01-12T00:23:49.112Z,91.14
2023-01-12T00:24:49.099Z,91.19
2023-01-12T00:25:49.114Z,90.83
2023-01-12T00:26:49.101Z,90.83
2023-01-12T00:27:49.063Z,90.94
2023-01-12T00:28:49.064Z,90.94
2023-01-12T00:29:49.056Z,91.04
2023-01-12T00:30:49.028Z,90.94
2023-01-12T00:31:49.032Z,90.73
2023-01-12T00:32:49.003Z,91.04
2023-01-12T00:33:48.984Z,90.83
2023-01-12T00:34:48.990Z,90.83
2023-01-12T00:35:48.971Z,90.63
2023-01-12T00:36:48.949Z,90.83
2023-01-12T00:37:48.959Z,90.83
2023-01-12T00:38:48.922Z,90.63
2023-01-12T00:40:01.461Z,90.53
2023-01-12T00:40:49.899Z,90.63
2023-01-12T00:41:48.913Z,90.83
2023-01-12T00:42:48.886Z,90.73
2023-01-12T00:43:48.861Z,90.73
2023-01-12T00:44:48.859Z,90.83
2023-01-12T00:45:48.838Z,90.94
2023-01-12T00:46:48.817Z,90.94
2023-01-12T00:47:48.816Z,90.94
2023-01-12T00:48:48.809Z,91.08
2023-01-12T00:49:48.774Z,90.83
2023-01-12T00:50:48.765Z,90.94
2023-01-12T00:51:48.747Z,90.73
2023-01-12T00:52:48.771Z,90.42
2023-01-12T00:53:48.728Z,90.53
2023-01-12T00:54:48.733Z,90.42
2023-01-12T00:55:48.699Z,90.53
2023-01-12T00:56:48.686Z,90.53
2023-01-12T00:57:48.709Z,90.53
2023-01-12T00:58:48.661Z,90.32
2023-01-12T00:59:48.648Z,90.53
2023-01-12T01:00:48.638Z,90.73
2023-01-12T01:01:48.704Z,90.63
2023-01-12T01:02:48.710Z,90.73
2023-01-12T01:03:48.597Z,90.83
2023-01-12T01:04:48.588Z,90.01
2023-01-12T01:05:48.579Z,89.76
2023-01-12T01:06:48.557Z,90.01
2023-01-12T01:07:48.563Z,89.81
2023-01-12T01:08:48.539Z,89.87
2023-01-12T01:09:48.522Z,89.56
2023-01-12T01:10:48.505Z,89.46
2023-01-12T01:11:48.489Z,89.56
2023-01-12T01:12:48.497Z,89.66
2023-01-12T01:13:48.484Z,89.66
2023-01-12T01:14:48.467Z,89.56
2023-01-12T01:15:48.454Z,89.76
2023-01-12T01:16:48.430Z,89.36
2023-01-12T01:17:48.434Z,89.25
2023-01-12T01:18:48.400Z,89.56
2023-01-12T01:19:48.396Z,89.56
2023-01-12T01:20:48.375Z,89.87
2023-01-12T01:21:48.362Z,89.66
2023-01-12T01:22:48.362Z,89.46
2023-01-12T01:23:48.344Z,88.95
2023-01-12T01:24:48.324Z,88.70
2023-01-12T01:25:48.329Z,88.59
2023-01-12T01:26:48.296Z,88.29
2023-01-12T01:27:48.295Z,88.49
2023-01-12T01:28:48.272Z,88.59
2023-01-12T01:29:48.278Z,88.49
2023-01-12T01:30:48.349Z,88.70
2023-01-12T01:31:48.231Z,88.59
2023-01-12T01:32:48.229Z,88.90
2023-01-12T01:33:48.207Z,89.01
2023-01-12T01:34:48.219Z,89.11
2023-01-12T01:35:48.178Z,88.80
2023-01-12T01:36:48.164Z,88.59
2023-01-12T01:37:48.167Z,88.70
2023-01-12T01:38:48.143Z,88.59
2023-01-12T01:39:48.125Z,88.39
2023-01-12T01:40:48.112Z,88.29
2023-01-12T01:41:48.166Z,88.08
2023-01-12T01:42:48.101Z,88.08
2023-01-12T01:43:48.081Z,87.32
2023-01-12T01:44:48.066Z,87.22
2023-01-12T01:45:48.074Z,87.73
2023-01-12T01:46:48.060Z,87.98
2023-01-12T01:47:48.040Z,88.08
2023-01-12T01:48:48.025Z,88.08
2023-01-12T01:49:47.996Z,87.98
2023-01-12T01:50:47.984Z,88.18
2023-01-12T01:51:47.973Z,88.29
2023-01-12T01:52:47.972Z,87.84
2023-01-12T01:53:47.962Z,87.94
2023-01-12T01:54:47.931Z,87.73
2023-01-12T01:55:47.921Z,87.73
2023-01-12T01:56:47.925Z,87.67
2023-01-12T01:57:47.905Z,87.73
2023-01-12T01:58:47.895Z,87.84
2023-01-12T01:59:47.868Z,88.08
2023-01-12T02:00:47.858Z,87.94
2023-01-12T02:01:47.911Z,87.88
2023-01-12T02:02:47.936Z,87.94
2023-01-12T02:03:47.837Z,88.18
2023-01-12T02:04:47.807Z,87.73
2023-01-12T02:05:47.792Z,87.73
2023-01-12T02:06:47.777Z,87.84
2023-01-12T02:07:47.770Z,88.04
2023-01-12T02:08:47.765Z,87.94
2023-01-12T02:09:47.741Z,87.73
2023-01-12T02:10:47.723Z,87.94
2023-01-12T02:11:47.720Z,87.84
2023-01-12T02:12:47.702Z,87.63
2023-01-12T02:13:47.701Z,87.53
2023-01-12T02:14:47.681Z,87.63
2023-01-12T02:15:47.759Z,87.63
2023-01-12T02:16:47.646Z,87.84
2023-01-12T02:17:47.667Z,87.94
2023-01-12T02:18:47.644Z,87.98
2023-01-12T02:19:47.612Z,88.08
2023-01-12T02:20:47.597Z,87.84
2023-01-12T02:21:47.580Z,87.84
2023-01-12T02:22:47.567Z,87.84
2023-01-12T02:23:47.577Z,87.94
2023-01-12T02:24:47.547Z,87.53
2023-01-12T02:25:47.537Z,87.43
2023-01-12T02:26:47.527Z,87.63
2023-01-12T02:27:47.512Z,87.84
2023-01-12T02:28:47.515Z,87.53
2023-01-12T02:29:47.485Z,87.63
2023-01-12T02:30:47.499Z,87.94
2023-01-12T02:31:47.456Z,88.18
2023-01-12T02:32:47.441Z,88.49
2023-01-12T02:33:47.463Z,88.39
2023-01-12T02:34:47.426Z,88.39
2023-01-12T02:35:47.404Z,88.49
2023-01-12T02:36:47.391Z,88.49
2023-01-12T02:37:47.380Z,88.70
2023-01-12T02:38:47.378Z,88.70
2023-01-12T02:39:47.351Z,89.01
2023-01-12T02:40:47.338Z,89.11
2023-01-12T02:41:47.328Z,89.01
2023-01-12T02:42:47.369Z,89.11
2023-01-12T02:43:47.318Z,89.11
2023-01-12T02:44:47.288Z,89.21
2023-01-12T02:45:47.272Z,89.52
2023-01-12T02:46:47.313Z,89.31
2023-01-12T02:47:47.246Z,89.52
2023-01-12T02:48:47.270Z,89.72
2023-01-12T02:49:47.242Z,89.83
2023-01-12T02:50:47.218Z,89.72
2023-01-12T02:51:47.223Z,89.31
2023-01-12T02:52:47.186Z,89.62
2023-01-12T02:53:47.209Z,89.62
2023-01-12T02:54:47.167Z,89.72
2023-01-12T02:55:47.161Z,89.62
2023-01-12T02:56:47.133Z,89.72
2023-01-12T02:57:47.121Z,89.93
2023-01-12T02:58:47.123Z,89.93
2023-01-12T02:59:47.094Z,89.93
2023-01-12T03:00:47.102Z,89.93
2023-01-12T03:01:47.116Z,89.93
2023-01-12T03:02:47.086Z,89.72
2023-01-12T03:03:47.113Z,89.52
2023-01-12T03:04:47.032Z,89.62
2023-01-12T03:05:47.045Z,89.72
2023-01-12T03:06:47.008Z,89.97
2023-01-12T03:07:46.990Z,89.76
2023-01-12T03:08:46.975Z,89.83
2023-01-12T03:09:46.983Z,89.72
2023-01-12T03:10:46.947Z,89.93
2023-01-12T03:11:46.934Z,89.83
2023-01-12T03:12:46.931Z,89.83
2023-01-12T03:13:46.911Z,89.97
2023-01-12T03:14:46.910Z,89.93
2023-01-12T03:15:46.921Z,89.97
2023-01-12T03:16:46.878Z,89.97
2023-01-12T03:17:46.858Z,89.72
2023-01-12T03:18:46.845Z,89.87
2023-01-12T03:19:46.849Z,89.83
2023-01-12T03:20:46.822Z,89.72
2023-01-12T03:21:46.958Z,89.76
2023-01-12T03:22:46.794Z,90.08
2023-01-12T03:23:46.784Z,90.18
2023-01-12T03:24:46.782Z,90.08
2023-01-12T03:25:46.756Z,90.18
2023-01-12T03:26:46.757Z,89.97
2023-01-12T03:27:46.731Z,89.87
2023-01-12T03:28:46.718Z,89.83
2023-01-12T03:29:46.722Z,89.62
2023-01-12T03:30:46.707Z,89.83
2023-01-12T03:31:46.771Z,89.62
2023-01-12T03:32:46.675Z,89.93
2023-01-12T03:33:46.653Z,89.72
2023-01-12T03:34:46.652Z,89.83
2023-01-12T03:35:46.621Z,89.72
2023-01-12T03:36:46.641Z,89.62
2023-01-12T03:37:46.625Z,89.62
2023-01-12T03:38:46.591Z,89.72
2023-01-12T03:39:46.602Z,89.72
2023-01-12T03:40:46.571Z,89.72
2023-01-12T03:41:46.553Z,89.83
2023-01-12T03:42:46.535Z,89.83
2023-01-12T03:43:46.527Z,89.72
2023-01-12T03:44:46.525Z,89.93
2023-01-12T03:45:46.506Z,90.03
2023-01-12T03:46:46.525Z,89.93
2023-01-12T03:47:46.500Z,89.83
2023-01-12T03:48:46.457Z,89.72
2023-01-12T03:49:46.465Z,89.72
2023-01-12T03:50:46.432Z,89.42
2023-01-12T03:51:46.426Z,89.31
2023-01-12T03:52:46.402Z,89.11
2023-01-12T03:53:46.503Z,89.21
2023-01-12T03:54:46.403Z,89.31
2023-01-12T03:55:46.369Z,89.07
2023-01-12T03:56:46.355Z,88.86
2023-01-12T03:57:46.376Z,89.17
2023-01-12T03:58:46.342Z,89.21
2023-01-12T03:59:46.341Z,89.48
2023-01-12T04:00:46.406Z,89.58
2023-01-12T04:01:46.444Z,89.52
2023-01-12T04:02:46.282Z,89.48
2023-01-12T04:03:46.280Z,89.42
2023-01-12T04:04:46.269Z,89.52
2023-01-12T04:05:46.244Z,89.17
2023-01-12T04:06:46.231Z,89.17
2023-01-12T04:07:46.215Z,89.37
2023-01-12T04:08:46.208Z,89.48
2023-01-12T04:09:46.224Z,89.37
2023-01-12T04:10:46.178Z,89.37
2023-01-12T04:11:46.165Z,89.27
2023-01-12T04:12:46.159Z,89.27
2023-01-12T04:13:46.139Z,89.27
2023-01-12T04:14:48.107Z,89.27
2023-01-12T04:15:46.118Z,88.86
2023-01-12T04:16:46.107Z,88.76
2023-01-12T04:17:46.090Z,88.76
2023-01-12T04:18:46.078Z,89.07
2023-01-12T04:19:46.085Z,89.07
2023-01-12T04:20:46.047Z,89.27
2023-01-12T04:21:46.044Z,89.07
2023-01-12T04:22:46.048Z,89.17
2023-01-12T04:23:46.015Z,89.07
2023-01-12T04:24:46.027Z,89.78
2023-01-12T04:25:46.013Z,89.89
2023-01-12T04:26:45.982Z,89.69
2023-01-12T04:27:45.963Z,89.89
2023-01-12T04:28:45.948Z,90.30
2023-01-12T04:29:45.951Z,90.61
2023-01-12T04:30:45.923Z,91.02
2023-01-12T04:31:45.927Z,91.27
2023-01-12T04:32:45.911Z,90.71
2023-01-12T04:33:45.883Z,90.91
2023-01-12T04:34:45.896Z,91.02
2023-01-12T04:35:45.860Z,91.53
2023-01-12T04:36:45.849Z,92.40
2023-01-12T04:37:45.848Z,92.50
2023-01-12T04:38:45.823Z,92.60
2023-01-12T04:39:45.835Z,92.19
2023-01-12T04:40:45.803Z,92.70
2023-01-12T04:41:45.799Z,93.01
2023-01-12T04:42:45.773Z,93.57
2023-01-12T04:43:45.759Z,93.46
2023-01-12T04:44:45.749Z,93.05
2023-01-12T04:45:45.794Z,93.36
2023-01-12T04:46:45.719Z,93.01
2023-01-12T04:47:45.708Z,92.80
2023-01-12T04:48:45.695Z,93.12
2023-01-12T04:49:45.682Z,93.26
2023-01-12T04:50:45.705Z,93.01
2023-01-12T04:51:45.660Z,93.26
2023-01-12T04:52:45.645Z,93.01
2023-01-12T04:53:45.634Z,92.91
2023-01-12T04:54:45.636Z,92.64
2023-01-12T04:55:45.630Z,92.70
2023-01-12T04:56:45.601Z,92.80
2023-01-12T04:57:45.605Z,92.29
2023-01-12T04:58:45.566Z,91.67
2023-01-12T04:59:45.560Z,91.67
2023-01-12T05:00:45.620Z,91.37
2023-01-12T05:01:45.569Z,91.37
2023-01-12T05:02:45.512Z,91.47
2023-01-12T05:03:45.657Z,91.78
2023-01-12T05:04:45.487Z,91.88
2023-01-12T05:05:45.492Z,91.67
2023-01-12T05:06:45.468Z,91.57
2023-01-12T05:07:45.451Z,91.47
2023-01-12T05:08:45.451Z,91.57
2023-01-12T05:09:45.430Z,91.47
2023-01-12T05:10:45.435Z,91.57
2023-01-12T05:11:45.406Z,91.16
2023-01-12T05:12:45.392Z,91.06
2023-01-12T05:13:45.459Z,90.85
2023-01-12T05:14:45.361Z,90.85
2023-01-12T05:15:45.366Z,90.81
2023-01-12T05:16:45.400Z,90.85
2023-01-12T05:17:45.329Z,90.75
2023-01-12T05:18:45.327Z,90.91
2023-01-12T05:19:45.302Z,90.44
2023-01-12T05:20:45.306Z,90.61
2023-01-12T05:21:45.275Z,90.50
2023-01-12T05:22:45.275Z,90.20
2023-01-12T05:23:45.258Z,89.99
2023-01-12T05:24:45.239Z,90.40
2023-01-12T05:25:45.242Z,90.65
2023-01-12T05:26:45.225Z,91.06
2023-01-12T05:27:45.200Z,90.85
2023-01-12T05:28:45.201Z,91.27
2023-01-12T05:29:45.196Z,91.27
2023-01-12T05:30:45.344Z,90.95
2023-01-12T05:31:45.162Z,90.95
2023-01-12T05:32:45.137Z,91.06
2023-01-12T05:33:45.123Z,90.95
2023-01-12T05:34:45.149Z,90.95
2023-01-12T05:35:45.108Z,91.27
2023-01-12T05:36:45.084Z,90.65
2023-01-12T05:37:45.072Z,90.81
2023-01-12T05:38:45.060Z,90.40
2023-01-12T05:39:45.064Z,90.40
2023-01-12T05:40:45.049Z,90.55
2023-01-12T05:41:45.024Z,90.61
2023-01-12T05:42:45.011Z,90.61
2023-01-12T05:43:44.991Z,90.75
2023-01-12T05:44:44.978Z,90.55
2023-01-12T05:45:45.162Z,90.71
2023-01-12T05:46:44.961Z,90.65
2023-01-12T05:47:44.944Z,90.40
2023-01-12T05:48:44.949Z,90.50
2023-01-12T05:49:44.922Z,90.40
2023-01-12T05:50:44.927Z,90.75
2023-01-12T05:51:44.895Z,90.61
2023-01-12T05:52:44.886Z,90.75
2023-01-12T05:53:44.866Z,90.95
2023-01-12T05:54:44.855Z,90.85
2023-01-12T05:55:44.859Z,90.75
2023-01-12T05:56:44.829Z,90.75
2023-01-12T05:57:44.815Z,90.61
2023-01-12T05:58:44.804Z,90.50
2023-01-12T05:59:44.800Z,90.44
2023-01-12T06:00:44.779Z,90.65
2023-01-12T06:01:44.808Z,90.65
2023-01-12T06:02:44.752Z,90.65
2023-01-12T06:03:44.744Z,90.65
2023-01-12T06:04:44.785Z,90.65
2023-01-12T06:05:44.714Z,90.55
2023-01-12T06:06:44.715Z,90.24
2023-01-12T06:07:44.709Z,90.09
2023-01-12T06:08:44.678Z,90.30
2023-01-12T06:09:44.674Z,90.30
2023-01-12T06:10:44.646Z,90.30
2023-01-12T06:11:44.648Z,89.99
2023-01-12T06:12:44.628Z,89.78
2023-01-12T06:13:44.614Z,89.78
2023-01-12T06:14:44.605Z,89.89
2023-01-12T06:15:44.664Z,89.89
2023-01-12T06:16:44.602Z,89.99
2023-01-12T06:17:44.588Z,89.99
2023-01-12T06:18:44.547Z,89.48
2023-01-12T06:19:44.535Z,89.48
2023-01-12T06:20:44.522Z,89.58
2023-01-12T06:21:44.540Z,89.58
2023-01-12T06:22:44.504Z,89.69
2023-01-12T06:23:44.485Z,89.78
2023-01-12T06:24:44.470Z,89.89
2023-01-12T06:25:44.463Z,89.69
2023-01-12T06:26:44.467Z,89.89
2023-01-12T06:27:44.431Z,89.99
2023-01-12T06:28:44.419Z,89.69
2023-01-12T06:29:44.408Z,89.58
2023-01-12T06:30:44.439Z,89.27
2023-01-12T06:31:44.395Z,89.48
2023-01-12T06:32:44.373Z,89.89
2023-01-12T06:33:44.376Z,90.09
2023-01-12T06:34:44.344Z,90.30
2023-01-12T06:35:44.327Z,90.40
2023-01-12T06:36:44.333Z,90.71
2023-01-12T06:37:44.301Z,91.22
2023-01-12T06:38:44.303Z,91.67
2023-01-12T06:39:44.278Z,91.78
2023-01-12T06:40:44.271Z,91.67
2023-01-12T06:41:44.498Z,91.78
2023-01-12T06:42:44.241Z,92.40
2023-01-12T06:43:44.228Z,92.19
2023-01-12T06:44:44.226Z,92.29
2023-01-12T06:45:44.209Z,93.01
2023-01-12T06:46:44.216Z,93.52
2023-01-12T06:47:44.175Z,94.29
2023-01-12T06:48:44.167Z,94.90
2023-01-12T06:49:44.175Z,95.01
2023-01-12T06:50:44.140Z,95.52
2023-01-12T06:51:44.141Z,95.62
2023-01-12T06:52:44.122Z,95.87
2023-01-12T06:53:44.099Z,96.28
2023-01-12T06:54:44.087Z,96.90
2023-01-12T06:55:44.075Z,97.72
2023-01-12T06:56:44.077Z,97.92
2023-01-12T06:57:44.057Z,98.49
2023-01-12T06:58:44.040Z,99.00
2023-01-12T06:59:44.029Z,99.21
2023-01-12T07:00:44.013Z,99.82
2023-01-12T07:01:44.141Z,99.82
2023-01-12T07:02:44.001Z,99.51
2023-01-12T07:03:43.970Z,99.99
2023-01-12T07:04:44.025Z,99.93
2023-01-12T07:05:43.965Z,99.99
2023-01-12T07:06:43.939Z,99.99
2023-01-12T07:07:43.942Z,99.99
2023-01-12T07:08:43.908Z,99.99
2023-01-12T07:09:43.897Z,99.99
2023-01-12T07:10:43.887Z,99.99
2023-01-12T07:11:43.879Z,99.99
2023-01-12T07:12:43.869Z,99.99
2023-01-12T07:13:43.841Z,99.99
2023-01-12T07:14:43.827Z,99.99
2023-01-12T07:15:43.856Z,99.99
2023-01-12T07:16:43.800Z,99.99
2023-01-12T07:17:43.806Z,99.99
2023-01-12T07:18:43.778Z,99.99
2023-01-12T07:19:43.768Z,99.99
2023-01-12T07:20:43.747Z,99.99
2023-01-12T07:21:43.885Z,99.99
2023-01-12T07:22:43.745Z,99.99
2023-01-12T07:23:43.763Z,99.99
2023-01-12T07:24:43.699Z,99.99
2023-01-12T07:25:43.687Z,99.99
2023-01-12T07:26:43.682Z,99.99
2023-01-12T07:27:43.675Z,99.99
2023-01-12T07:28:43.656Z,99.99
2023-01-12T07:29:43.628Z,99.99
2023-01-12T07:30:43.805Z,99.99
2023-01-12T07:31:43.610Z,99.99
2023-01-12T07:32:43.607Z,99.99
2023-01-12T07:33:43.584Z,99.99
2023-01-12T07:34:43.568Z,99.99
2023-01-12T07:35:43.554Z,99.99
2023-01-12T07:36:43.539Z,99.99
2023-01-12T07:37:43.697Z,99.99
2023-01-12T07:38:43.521Z,99.99
2023-01-12T07:39:43.500Z,99.99
2023-01-12T07:40:43.491Z,99.99
2023-01-12T07:41:43.480Z,99.99
2023-01-12T07:42:43.481Z,99.99
2023-01-12T07:43:43.456Z,99.99
2023-01-12T07:44:43.448Z,99.99
2023-01-12T07:45:43.425Z,99.99
2023-01-12T07:46:43.437Z,99.99
2023-01-12T07:47:43.412Z,99.99
2023-01-12T07:48:43.385Z,99.99
2023-01-12T07:49:43.372Z,99.99
2023-01-12T07:50:43.372Z,99.99
2023-01-12T07:51:43.355Z,99.99
2023-01-12T07:52:43.353Z,99.99
2023-01-12T07:53:43.337Z,99.99
2023-01-12T07:54:43.311Z,99.99
2023-01-12T07:55:43.291Z,99.99
2023-01-12T07:56:44.334Z,99.99
2023-01-12T07:57:43.278Z,99.99
2023-01-12T07:58:43.256Z,99.99
2023-01-12T07:59:43.242Z,99.99
2023-01-12T08:00:43.232Z,99.99
2023-01-12T08:01:43.270Z,99.99
2023-01-12T08:02:43.216Z,99.99
2023-01-12T08:03:43.189Z,99.99
2023-01-12T08:04:43.180Z,99.99
2023-01-12T08:05:43.219Z,99.99
2023-01-12T08:06:43.149Z,99.99
2023-01-12T08:07:43.156Z,99.99
2023-01-12T08:08:43.133Z,99.99
2023-01-12T08:09:43.133Z,99.99
2023-01-12T08:10:43.099Z,99.99
2023-01-12T08:11:43.090Z,99.99
2023-01-12T08:12:43.076Z,99.99
2023-01-12T08:13:43.087Z,99.99
2023-01-12T08:14:43.050Z,99.99
2023-01-12T08:15:43.032Z,99.99
2023-01-12T08:16:43.033Z,99.99
2023-01-12T08:17:43.019Z,99.99
2023-01-12T08:18:43.012Z,99.99
2023-01-12T08:19:42.976Z,99.99
2023-01-12T08:20:42.969Z,99.99
2023-01-12T08:21:42.957Z,99.99
2023-01-12T08:22:42.939Z,99.99
2023-01-12T08:23:42.950Z,99.99
2023-01-12T08:24:42.920Z,99.99
2023-01-12T08:25:42.920Z,99.99
2023-01-12T08:26:42.896Z,99.99
2023-01-12T08:27:42.887Z,99.99
2023-01-12T08:28:42.881Z,99.99
2023-01-12T08:29:42.853Z,99.99
2023-01-12T08:30:42.839Z,99.99
2023-01-12T08:31:42.826Z,99.99
2023-01-12T08:32:42.813Z,99.99
2023-01-12T08:33:42.821Z,99.99
2023-01-12T08:34:42.788Z,99.99
2023-01-12T08:35:42.769Z,99.99
2023-01-12T08:36:44.272Z,99.99
2023-01-12T08:37:42.750Z,99.99
2023-01-12T08:38:42.775Z,99.99
2023-01-12T08:39:42.722Z,99.99
2023-01-12T08:40:42.709Z,99.99
2023-01-12T08:41:42.715Z,99.99
2023-01-12T08:42:42.690Z,99.99
2023-01-12T08:43:42.684Z,99.99
2023-01-12T08:44:42.658Z,99.99
2023-01-12T08:45:42.655Z,99.99
2023-01-12T08:46:42.766Z,99.99
2023-01-12T08:47:42.623Z,99.99
2023-01-12T08:48:42.614Z,99.99
2023-01-12T08:49:42.588Z,99.99
2023-01-12T08:50:42.584Z,99.99
2023-01-12T08:51:42.560Z,99.99
2023-01-12T08:52:42.570Z,99.99
2023-01-12T08:53:42.557Z,99.99
2023-01-12T08:54:42.535Z,99.99
2023-01-12T08:55:42.514Z,99.99
2023-01-12T08:56:42.505Z,99.99
2023-01-12T08:57:42.513Z,99.99
2023-01-12T08:58:42.492Z,99.99
2023-01-12T08:59:42.464Z,99.99
2023-01-12T09:00:42.524Z,99.99
2023-01-12T09:01:42.522Z,99.99
2023-01-12T09:02:42.526Z,99.99
2023-01-12T09:03:42.435Z,99.99
2023-01-12T09:04:42.411Z,99.99
2023-01-12T09:05:42.388Z,99.99
2023-01-12T09:06:42.381Z,99.99
2023-01-12T09:07:42.362Z,99.99
2023-01-12T09:08:42.370Z,99.99
2023-01-12T09:09:42.345Z,99.99
2023-01-12T09:10:42.343Z,99.99
2023-01-12T09:11:42.352Z,99.99
2023-01-12T09:12:42.295Z,99.99
2023-01-12T09:13:42.313Z,99.99
2023-01-12T09:14:42.277Z,99.99
2023-01-12T09:15:48.252Z,99.99
2023-01-12T09:16:43.301Z,99.99
2023-01-12T09:17:42.238Z,99.99
2023-01-12T09:18:42.249Z,99.99
2023-01-12T09:19:42.211Z,99.99
2023-01-12T09:20:42.192Z,99.99
2023-01-12T09:21:42.176Z,99.99
2023-01-12T09:22:42.277Z,99.99
2023-01-12T09:23:42.179Z,99.99
2023-01-12T09:24:42.163Z,99.99
2023-01-12T09:25:42.127Z,99.99
2023-01-12T09:26:42.128Z,99.99
2023-01-12T09:27:42.096Z,99.99
2023-01-12T09:28:42.108Z,99.99
2023-01-12T09:29:42.113Z,99.99
2023-01-12T09:30:42.068Z,99.99
2023-01-12T09:31:42.136Z,99.99
2023-01-12T09:32:42.035Z,99.99
2023-01-12T09:33:42.054Z,99.99
2023-01-12T09:34:42.017Z,99.99
2023-01-12T09:35:41.992Z,99.99
2023-01-12T09:36:41.987Z,99.99
2023-01-12T09:37:41.962Z,99.99
2023-01-12T09:38:41.956Z,99.99
2023-01-12T09:39:41.956Z,99.99
2023-01-12T09:40:41.928Z,99.99
2023-01-12T09:41:41.918Z,99.99
2023-01-12T09:42:41.907Z,99.99
2023-01-12T09:43:41.888Z,99.99
2023-01-12T09:44:41.901Z,99.99
2023-01-12T09:45:41.948Z,99.99
2023-01-12T09:46:41.867Z,99.99
2023-01-12T09:47:41.839Z,99.99
2023-01-12T09:48:41.828Z,99.99
2023-01-12T09:49:41.823Z,99.99
2023-01-12T09:50:41.803Z,99.99
2023-01-12T09:51:41.780Z,99.99
2023-01-12T09:52:41.781Z,99.99
2023-01-12T09:53:41.757Z,99.99
2023-01-12T09:54:41.761Z,99.99
2023-01-12T09:55:41.749Z,99.99
2023-01-12T09:56:41.722Z,99.99
2023-01-12T09:57:41.703Z,99.99
2023-01-12T09:58:41.696Z,99.99
2023-01-12T09:59:41.691Z,99.99
2023-01-12T10:00:41.670Z,99.99
2023-01-12T10:01:41.839Z,99.99
2023-01-12T10:02:41.842Z,99.99
2023-01-12T10:03:41.739Z,99.99
2023-01-12T10:04:41.634Z,99.99
2023-01-12T10:05:41.612Z,99.99
2023-01-12T10:06:41.594Z,99.99
2023-01-12T10:07:42.273Z,99.99
2023-01-12T10:08:41.586Z,99.99
2023-01-12T10:09:41.564Z,99.99
2023-01-12T10:10:41.541Z,99.99
2023-01-12T10:11:41.536Z,99.99
2023-01-12T10:12:41.527Z,99.99
2023-01-12T10:13:41.512Z,99.99
2023-01-12T10:14:41.521Z,99.99
2023-01-12T10:15:41.494Z,99.99
2023-01-12T10:16:41.546Z,99.99
2023-01-12T10:17:50.833Z,99.99
2023-01-12T10:18:42.445Z,99.99
2023-01-12T10:19:41.480Z,99.99
2023-01-12T10:20:41.447Z,99.99
2023-01-12T10:21:41.401Z,99.99
2023-01-12T10:22:41.401Z,99.99
2023-01-12T10:23:41.381Z,99.99
2023-01-12T10:24:41.391Z,99.99
2023-01-12T10:25:41.361Z,99.99
2023-01-12T10:26:41.340Z,99.99
2023-01-12T10:27:41.349Z,99.99
2023-01-12T10:28:41.305Z,99.99
2023-01-12T10:29:41.299Z,99.99
2023-01-12T10:30:41.317Z,99.99
2023-01-12T10:31:41.371Z,99.99
2023-01-12T10:32:42.333Z,99.99
2023-01-12T10:33:41.269Z,99.99
2023-01-12T10:34:41.235Z,99.99
2023-01-12T10:35:41.231Z,99.99
2023-01-12T10:36:41.198Z,99.99
2023-01-12T10:37:41.185Z,99.99
2023-01-12T10:38:41.177Z,99.99
2023-01-12T10:39:41.179Z,99.99
2023-01-12T10:40:41.179Z,99.99
2023-01-12T10:41:41.135Z,99.99
2023-01-12T10:42:41.132Z,99.99
2023-01-12T10:43:41.120Z,99.99
2023-01-12T10:44:41.122Z,99.99
2023-01-12T10:45:41.120Z,99.99
2023-01-12T10:46:41.131Z,99.99
2023-01-12T10:47:41.071Z,99.99
2023-01-12T10:48:41.067Z,99.99
2023-01-12T10:49:41.108Z,99.99
2023-01-12T10:50:41.044Z,99.99
2023-01-12T10:51:41.008Z,99.99
2023-01-12T10:52:41.020Z,99.99
2023-01-12T10:53:40.980Z,99.99
2023-01-12T10:54:40.965Z,99.99
2023-01-12T10:55:40.970Z,99.99
2023-01-12T10:56:40.948Z,99.99
2023-01-12T10:57:40.927Z,99.99
2023-01-12T10:58:40.920Z,99.99
2023-01-12T10:59:40.900Z,99.99
2023-01-12T11:00:40.905Z,99.99
2023-01-12T11:01:41.047Z,98.77
2023-01-12T11:02:40.902Z,99.08
2023-01-12T11:03:40.858Z,99.59
2023-01-12T11:04:40.837Z,99.18
2023-01-12T11:05:40.907Z,99.18
2023-01-12T11:06:40.814Z,98.57
2023-01-12T11:07:40.797Z,98.97
2023-01-12T11:08:40.787Z,98.87
2023-01-12T11:09:40.815Z,98.57
2023-01-12T11:10:40.786Z,98.25
2023-01-12T11:11:40.748Z,98.67
2023-01-12T11:12:40.727Z,98.67
2023-01-12T11:13:40.720Z,98.52
2023-01-12T11:14:40.718Z,98.52
2023-01-12T11:15:40.715Z,98.62
2023-01-12T11:16:40.753Z,98.52
2023-01-12T11:17:40.692Z,98.25
2023-01-12T11:18:40.660Z,98.62
2023-01-12T11:19:40.642Z,97.80
2023-01-12T11:20:40.650Z,97.70
2023-01-12T11:21:40.651Z,97.80
2023-01-12T11:22:40.604Z,97.70
2023-01-12T11:23:40.599Z,97.49
2023-01-12T11:24:40.587Z,96.67
2023-01-12T11:25:40.605Z,97.60
2023-01-12T11:26:40.556Z,97.80
2023-01-12T11:27:40.561Z,97.49
2023-01-12T11:28:40.535Z,97.08
2023-01-12T11:29:40.516Z,97.19
2023-01-12T11:30:40.597Z,97.70
2023-01-12T11:31:40.495Z,96.67
2023-01-12T11:32:40.499Z,96.94
2023-01-12T11:33:40.471Z,97.55
2023-01-12T11:34:40.454Z,97.70
2023-01-12T11:35:40.468Z,97.60
2023-01-12T11:36:40.432Z,96.32
2023-01-12T11:37:40.444Z,96.01
2023-01-12T11:38:40.403Z,96.12
2023-01-12T11:39:40.397Z,97.34
2023-01-12T11:40:40.399Z,97.39
2023-01-12T11:41:40.368Z,97.08
2023-01-12T11:42:40.353Z,96.88
2023-01-12T11:43:40.348Z,96.78
2023-01-12T11:44:40.324Z,97.29
2023-01-12T11:45:40.313Z,96.37
2023-01-12T11:46:40.318Z,96.16
2023-01-12T11:47:41.917Z,95.91
2023-01-12T11:48:40.275Z,95.70
2023-01-12T11:49:40.260Z,96.42
2023-01-12T11:50:40.247Z,95.70
2023-01-12T11:51:40.255Z,96.01
2023-01-12T11:52:40.224Z,96.12
2023-01-12T11:53:41.554Z,95.91
2023-01-12T11:54:40.265Z,96.22
2023-01-12T11:55:40.193Z,96.53
2023-01-12T11:56:40.194Z,96.63
2023-01-12T11:57:40.166Z,96.83
2023-01-12T11:58:40.162Z,95.91
2023-01-12T11:59:41.636Z,96.01
2023-01-12T12:00:40.135Z,96.63
2023-01-12T12:01:40.128Z,96.32
2023-01-12T12:02:40.150Z,95.40
2023-01-12T12:03:40.202Z,95.09
2023-01-12T12:04:40.073Z,95.29
2023-01-12T12:05:41.394Z,95.61
2023-01-12T12:06:40.100Z,94.89
2023-01-12T12:07:40.032Z,94.78
2023-01-12T12:08:40.037Z,93.92
2023-01-12T12:09:40.058Z,93.41
2023-01-12T12:10:40.004Z,93.82
2023-01-12T12:11:41.868Z,93.41
2023-01-12T12:12:40.045Z,93.71
2023-01-12T12:13:39.960Z,93.20
2023-01-12T12:14:39.952Z,93.20
2023-01-12T12:15:39.983Z,93.30
2023-01-12T12:16:39.944Z,93.20
2023-01-12T12:17:41.784Z,92.79
2023-01-12T12:18:39.897Z,92.96
2023-01-12T12:19:39.893Z,92.44
2023-01-12T12:20:39.872Z,92.65
2023-01-12T12:21:39.872Z,92.65
2023-01-12T12:22:39.835Z,92.65
2023-01-12T12:23:41.473Z,92.34
2023-01-12T12:24:39.819Z,91.52
2023-01-12T12:25:39.818Z,91.31
2023-01-12T12:26:39.811Z,91.22
2023-01-12T12:27:39.771Z,91.78
2023-01-12T12:28:39.764Z,91.83
2023-01-12T12:29:41.147Z,92.24
2023-01-12T12:30:39.782Z,91.73
2023-01-12T12:31:39.741Z,91.52
2023-01-12T12:32:39.727Z,91.73
2023-01-12T12:33:39.694Z,91.42
2023-01-12T12:34:39.680Z,92.03
2023-01-12T12:35:41.339Z,91.42
2023-01-12T12:36:39.670Z,91.11
2023-01-12T12:37:39.640Z,91.58
2023-01-12T12:38:39.622Z,91.42
2023-01-12T12:39:39.610Z,91.38
2023-01-12T12:40:39.599Z,91.78
2023-01-12T12:41:41.400Z,90.56
2023-01-12T12:42:39.578Z,91.17
2023-01-12T12:43:39.563Z,91.07
2023-01-12T12:44:39.547Z,91.17
2023-01-12T12:45:39.538Z,90.77
2023-01-12T12:46:39.544Z,90.77
2023-01-12T12:47:41.906Z,90.56
2023-01-12T12:48:39.493Z,90.77
2023-01-12T12:49:39.483Z,90.66
2023-01-12T12:50:39.463Z,90.77
2023-01-12T12:51:39.464Z,91.07
2023-01-12T12:52:39.435Z,91.58